sensor_id;sensor_type;location;lat;lon;timestamp;temperature;humidity
27423;DHT22;14878;50.778;0.258;2022-09-27T00:00:06;10.90;99.90
27423;DHT22;14878;50.778;0.258;2022-09-27T00:01:12;10.90;99.90
27423;DHT22;14878;50.778;0.258;2022-09-27T00:02:13;10.80;99.90
27423;DHT22;14878;50.778;0.258;2022-09-27T00:03:13;10.80;99.90
27423;DHT22;14878;50.778;0.258;2022-09-27T00:04:14;10.80;99.90
27423;DHT22;14878;50.778;0.258;2022-09-27T00:05:15;10.90;99.90
27423;DHT22;14878;50.778;0.258;2022-09-27T00:06:27;10.90;99.90
27423;DHT22;14878;50.778;0.258;2022-09-27T00:07:28;10.90;99.90
27423;DHT22;14878;50.778;0.258;2022-09-27T00:08:29;10.90;99.90
27423;DHT22;14878;50.778;0.258;2022-09-27T00:09:30;10.90;99.90
27423;DHT22;14878;50.778;0.258;2022-09-27T00:10:31;10.90;99.90
27423;DHT22;14878;50.778;0.258;2022-09-27T00:11:37;10.90;99.90
27423;DHT22;14878;50.778;0.258;2022-09-27T00:12:39;10.90;99.90
27423;DHT22;14878;50.778;0.258;2022-09-27T00:13:39;10.90;99.90
27423;DHT22;14878;50.778;0.258;2022-09-27T00:14:40;10.90;99.90
27423;DHT22;14878;50.778;0.258;2022-09-27T00:15:41;10.80;99.90
27423;DHT22;14878;50.778;0.258;2022-09-27T00:16:42;10.90;99.90
27423;DHT22;14878;50.778;0.258;2022-09-27T00:17:43;10.80;99.90
27423;DHT22;14878;50.778;0.258;2022-09-27T00:18:44;10.80;99.90
27423;DHT22;14878;50.778;0.258;2022-09-27T00:19:45;10.80;99.90
27423;DHT22;14878;50.778;0.258;2022-09-27T00:20:46;10.80;99.90
27423;DHT22;14878;50.778;0.258;2022-09-27T00:21:47;10.80;99.90
27423;DHT22;14878;50.778;0.258;2022-09-27T00:22:49;10.80;99.90
27423;DHT22;14878;50.778;0.258;2022-09-27T00:23:50;10.70;99.90
27423;DHT22;14878;50.778;0.258;2022-09-27T00:24:51;10.70;99.90
27423;DHT22;14878;50.778;0.258;2022-09-27T00:25:56;10.80;99.90
27423;DHT22;14878;50.778;0.258;2022-09-27T00:26:57;10.80;99.90
27423;DHT22;14878;50.778;0.258;2022-09-27T00:27:58;10.70;99.90
27423;DHT22;14878;50.778;0.258;2022-09-27T00:28:59;10.70;99.90
27423;DHT22;14878;50.778;0.258;2022-09-27T00:30:00;10.70;99.90
27423;DHT22;14878;50.778;0.258;2022-09-27T00:31:01;10.80;99.90
27423;DHT22;14878;50.778;0.258;2022-09-27T00:32:02;10.70;99.90
27423;DHT22;14878;50.778;0.258;2022-09-27T00:33:03;10.70;99.90
27423;DHT22;14878;50.778;0.258;2022-09-27T00:34:04;10.70;99.90
27423;DHT22;14878;50.778;0.258;2022-09-27T00:35:06;10.70;99.90
27423;DHT22;14878;50.778;0.258;2022-09-27T00:36:06;10.70;99.90
27423;DHT22;14878;50.778;0.258;2022-09-27T00:37:08;10.70;99.90
27423;DHT22;14878;50.778;0.258;2022-09-27T00:38:09;10.70;99.90
27423;DHT22;14878;50.778;0.258;2022-09-27T00:39:10;10.70;99.90
27423;DHT22;14878;50.778;0.258;2022-09-27T00:40:11;10.70;99.90
27423;DHT22;14878;50.778;0.258;2022-09-27T00:41:18;10.70;99.90
27423;DHT22;14878;50.778;0.258;2022-09-27T00:42:19;10.70;99.90
27423;DHT22;14878;50.778;0.258;2022-09-27T00:43:22;10.70;99.90
27423;DHT22;14878;50.778;0.258;2022-09-27T00:45:26;10.70;99.90
27423;DHT22;14878;50.778;0.258;2022-09-27T00:46:43;10.70;99.90
27423;DHT22;14878;50.778;0.258;2022-09-27T00:47:56;10.70;99.90
27423;DHT22;14878;50.778;0.258;2022-09-27T00:50:31;10.70;99.90
27423;DHT22;14878;50.778;0.258;2022-09-27T00:51:36;10.70;99.90
27423;DHT22;14878;50.778;0.258;2022-09-27T00:52:44;10.70;99.90
27423;DHT22;14878;50.778;0.258;2022-09-27T00:53:50;10.70;99.90
27423;DHT22;14878;50.778;0.258;2022-09-27T00:54:57;10.70;99.90
27423;DHT22;14878;50.778;0.258;2022-09-27T00:56:02;10.70;99.90
27423;DHT22;14878;50.778;0.258;2022-09-27T00:57:06;10.70;99.90
27423;DHT22;14878;50.778;0.258;2022-09-27T00:58:07;10.70;99.90
27423;DHT22;14878;50.778;0.258;2022-09-27T00:59:13;10.70;99.90
27423;DHT22;14878;50.778;0.258;2022-09-27T01:00:16;10.60;99.90
27423;DHT22;14878;50.778;0.258;2022-09-27T01:01:17;10.70;99.90
27423;DHT22;14878;50.778;0.258;2022-09-27T01:02:18;10.80;99.90
27423;DHT22;14878;50.778;0.258;2022-09-27T01:03:30;10.70;99.90
27423;DHT22;14878;50.778;0.258;2022-09-27T01:04:35;10.70;99.90
27423;DHT22;14878;50.778;0.258;2022-09-27T01:05:37;10.70;99.90
27423;DHT22;14878;50.778;0.258;2022-09-27T01:06:39;10.80;99.90
27423;DHT22;14878;50.778;0.258;2022-09-27T01:07:40;10.70;99.90
27423;DHT22;14878;50.778;0.258;2022-09-27T01:08:40;10.80;99.90
27423;DHT22;14878;50.778;0.258;2022-09-27T01:09:41;10.90;99.90
27423;DHT22;14878;50.778;0.258;2022-09-27T01:10:58;10.70;99.90
27423;DHT22;14878;50.778;0.258;2022-09-27T01:13:33;10.70;99.90
27423;DHT22;14878;50.778;0.258;2022-09-27T01:16:46;10.60;99.90
27423;DHT22;14878;50.778;0.258;2022-09-27T01:21:35;10.60;99.90
27423;DHT22;14878;50.778;0.258;2022-09-27T01:24:29;10.50;99.90
27423;DHT22;14878;50.778;0.258;2022-09-27T01:28:25;10.40;99.90
27423;DHT22;14878;50.778;0.258;2022-09-27T01:29:52;10.40;99.90
27423;DHT22;14878;50.778;0.258;2022-09-27T01:31:12;8.50;99.90
27423;DHT22;14878;50.778;0.258;2022-09-27T01:32:24;10.40;99.90
27423;DHT22;14878;50.778;0.258;2022-09-27T01:33:54;10.30;99.90
27423;DHT22;14878;50.778;0.258;2022-09-27T01:35:10;10.40;99.90
27423;DHT22;14878;50.778;0.258;2022-09-27T01:39:07;10.30;99.90
27423;DHT22;14878;50.778;0.258;2022-09-27T01:41:36;10.40;99.90
27423;DHT22;14878;50.778;0.258;2022-09-27T01:44:12;10.30;99.90
27423;DHT22;14878;50.778;0.258;2022-09-27T01:45:40;10.30;99.90
27423;DHT22;14878;50.778;0.258;2022-09-27T01:46:47;10.40;99.90
27423;DHT22;14878;50.778;0.258;2022-09-27T01:47:54;10.30;99.90
27423;DHT22;14878;50.778;0.258;2022-09-27T01:48:57;10.20;99.90
27423;DHT22;14878;50.778;0.258;2022-09-27T01:50:15;10.20;99.90
27423;DHT22;14878;50.778;0.258;2022-09-27T01:51:30;10.30;99.90
27423;DHT22;14878;50.778;0.258;2022-09-27T01:52:48;10.30;99.90
27423;DHT22;14878;50.778;0.258;2022-09-27T01:53:52;10.30;99.90
27423;DHT22;14878;50.778;0.258;2022-09-27T01:54:57;10.30;99.90
27423;DHT22;14878;50.778;0.258;2022-09-27T01:56:01;10.30;99.90
27423;DHT22;14878;50.778;0.258;2022-09-27T01:57:04;12.00;99.90
27423;DHT22;14878;50.778;0.258;2022-09-27T01:58:33;10.20;99.90
27423;DHT22;14878;50.778;0.258;2022-09-27T02:00:04;10.20;99.90
27423;DHT22;14878;50.778;0.258;2022-09-27T02:01:08;10.20;99.90
27423;DHT22;14878;50.778;0.258;2022-09-27T02:02:09;10.20;99.90
27423;DHT22;14878;50.778;0.258;2022-09-27T02:03:20;10.20;99.90
27423;DHT22;14878;50.778;0.258;2022-09-27T02:04:27;10.20;99.90
27423;DHT22;14878;50.778;0.258;2022-09-27T02:05:36;10.20;99.90
27423;DHT22;14878;50.778;0.258;2022-09-27T02:06:44;10.20;99.90
27423;DHT22;14878;50.778;0.258;2022-09-27T02:07:52;10.10;99.90
27423;DHT22;14878;50.778;0.258;2022-09-27T02:10:03;10.10;99.90
27423;DHT22;14878;50.778;0.258;2022-09-27T02:11:09;10.10;99.90
27423;DHT22;14878;50.778;0.258;2022-09-27T02:12:13;10.20;99.90
27423;DHT22;14878;50.778;0.258;2022-09-27T02:13:16;10.10;99.90
27423;DHT22;14878;50.778;0.258;2022-09-27T02:15:26;10.10;99.90
27423;DHT22;14878;50.778;0.258;2022-09-27T02:16:33;10.10;99.90
27423;DHT22;14878;50.778;0.258;2022-09-27T02:20:51;10.00;99.90
27423;DHT22;14878;50.778;0.258;2022-09-27T02:22:10;10.10;99.90
27423;DHT22;14878;50.778;0.258;2022-09-27T02:23:45;10.00;99.90
27423;DHT22;14878;50.778;0.258;2022-09-27T02:24:53;10.00;99.90
27423;DHT22;14878;50.778;0.258;2022-09-27T02:26:01;10.00;99.90
27423;DHT22;14878;50.778;0.258;2022-09-27T02:27:25;10.00;99.90
27423;DHT22;14878;50.778;0.258;2022-09-27T02:29:39;10.10;99.90
27423;DHT22;14878;50.778;0.258;2022-09-27T02:30:42;10.00;99.90
27423;DHT22;14878;50.778;0.258;2022-09-27T02:31:43;10.00;99.90
27423;DHT22;14878;50.778;0.258;2022-09-27T02:32:44;10.00;99.90
27423;DHT22;14878;50.778;0.258;2022-09-27T02:33:49;10.10;99.90
27423;DHT22;14878;50.778;0.258;2022-09-27T02:34:52;10.00;99.90
27423;DHT22;14878;50.778;0.258;2022-09-27T02:35:55;10.00;99.90
27423;DHT22;14878;50.778;0.258;2022-09-27T02:36:56;10.00;99.90
27423;DHT22;14878;50.778;0.258;2022-09-27T02:37:57;10.00;99.90
27423;DHT22;14878;50.778;0.258;2022-09-27T02:38:59;10.00;99.90
27423;DHT22;14878;50.778;0.258;2022-09-27T02:40:00;10.00;99.90
27423;DHT22;14878;50.778;0.258;2022-09-27T02:41:14;10.00;99.90
27423;DHT22;14878;50.778;0.258;2022-09-27T02:42:15;9.90;99.90
27423;DHT22;14878;50.778;0.258;2022-09-27T02:43:18;11.20;99.90
27423;DHT22;14878;50.778;0.258;2022-09-27T02:44:19;10.00;99.90
27423;DHT22;14878;50.778;0.258;2022-09-27T02:45:21;10.00;99.90
27423;DHT22;14878;50.778;0.258;2022-09-27T02:48:09;10.00;99.90
27423;DHT22;14878;50.778;0.258;2022-09-27T02:55:18;9.90;99.90
27423;DHT22;14878;50.778;0.258;2022-09-27T02:56:24;9.80;99.90
27423;DHT22;14878;50.778;0.258;2022-09-27T02:57:52;9.90;99.90
27423;DHT22;14878;50.778;0.258;2022-09-27T02:59:31;9.90;99.90
27423;DHT22;14878;50.778;0.258;2022-09-27T03:00:47;9.90;99.90
27423;DHT22;14878;50.778;0.258;2022-09-27T03:04:46;9.90;99.90
27423;DHT22;14878;50.778;0.258;2022-09-27T03:06:09;9.80;99.90
27423;DHT22;14878;50.778;0.258;2022-09-27T03:07:12;9.90;99.90
27423;DHT22;14878;50.778;0.258;2022-09-27T03:08:14;9.80;99.90
27423;DHT22;14878;50.778;0.258;2022-09-27T03:09:22;9.80;99.90
27423;DHT22;14878;50.778;0.258;2022-09-27T03:10:25;9.80;99.90
27423;DHT22;14878;50.778;0.258;2022-09-27T03:11:26;9.80;99.90
27423;DHT22;14878;50.778;0.258;2022-09-27T03:12:27;9.80;99.90
27423;DHT22;14878;50.778;0.258;2022-09-27T03:13:28;9.70;99.90
27423;DHT22;14878;50.778;0.258;2022-09-27T03:14:29;9.70;99.90
27423;DHT22;14878;50.778;0.258;2022-09-27T03:15:30;9.80;99.90
27423;DHT22;14878;50.778;0.258;2022-09-27T03:16:31;9.80;99.90
27423;DHT22;14878;50.778;0.258;2022-09-27T03:17:32;9.80;99.90
27423;DHT22;14878;50.778;0.258;2022-09-27T03:18:33;9.70;99.90
27423;DHT22;14878;50.778;0.258;2022-09-27T03:19:33;9.70;99.90
27423;DHT22;14878;50.778;0.258;2022-09-27T03:20:34;9.70;99.90
27423;DHT22;14878;50.778;0.258;2022-09-27T03:21:35;9.60;99.90
27423;DHT22;14878;50.778;0.258;2022-09-27T03:22:36;9.70;99.90
27423;DHT22;14878;50.778;0.258;2022-09-27T03:23:37;9.70;99.90
27423;DHT22;14878;50.778;0.258;2022-09-27T03:24:38;9.60;99.90
27423;DHT22;14878;50.778;0.258;2022-09-27T03:25:39;9.70;99.90
27423;DHT22;14878;50.778;0.258;2022-09-27T03:26:40;9.70;99.90
27423;DHT22;14878;50.778;0.258;2022-09-27T03:27:42;9.70;99.90
27423;DHT22;14878;50.778;0.258;2022-09-27T03:28:43;9.60;99.90
27423;DHT22;14878;50.778;0.258;2022-09-27T03:29:44;9.70;99.90
27423;DHT22;14878;50.778;0.258;2022-09-27T03:30:45;9.70;99.90
27423;DHT22;14878;50.778;0.258;2022-09-27T03:31:46;9.60;99.90
27423;DHT22;14878;50.778;0.258;2022-09-27T03:32:47;9.60;99.90
27423;DHT22;14878;50.778;0.258;2022-09-27T03:33:48;9.80;99.90
27423;DHT22;14878;50.778;0.258;2022-09-27T03:34:48;10.20;99.90
27423;DHT22;14878;50.778;0.258;2022-09-27T03:35:49;9.70;99.90
27423;DHT22;14878;50.778;0.258;2022-09-27T03:36:50;9.60;99.90
27423;DHT22;14878;50.778;0.258;2022-09-27T03:37:51;9.60;99.90
27423;DHT22;14878;50.778;0.258;2022-09-27T03:38:52;9.70;99.90
27423;DHT22;14878;50.778;0.258;2022-09-27T03:39:53;9.60;99.90
27423;DHT22;14878;50.778;0.258;2022-09-27T03:40:54;9.70;99.90
27423;DHT22;14878;50.778;0.258;2022-09-27T03:41:54;9.70;99.90
27423;DHT22;14878;50.778;0.258;2022-09-27T03:42:56;9.70;99.90
27423;DHT22;14878;50.778;0.258;2022-09-27T03:43:57;9.60;99.90
27423;DHT22;14878;50.778;0.258;2022-09-27T03:44:59;9.70;99.90
27423;DHT22;14878;50.778;0.258;2022-09-27T03:46:00;9.70;99.90
27423;DHT22;14878;50.778;0.258;2022-09-27T03:47:00;9.70;99.90
27423;DHT22;14878;50.778;0.258;2022-09-27T03:48:01;9.70;99.90
27423;DHT22;14878;50.778;0.258;2022-09-27T03:49:02;9.60;99.90
27423;DHT22;14878;50.778;0.258;2022-09-27T03:50:03;9.70;99.90
27423;DHT22;14878;50.778;0.258;2022-09-27T03:51:04;9.70;99.90
27423;DHT22;14878;50.778;0.258;2022-09-27T03:52:04;9.70;99.90
27423;DHT22;14878;50.778;0.258;2022-09-27T03:53:05;9.60;99.90
27423;DHT22;14878;50.778;0.258;2022-09-27T03:54:06;9.70;99.90
27423;DHT22;14878;50.778;0.258;2022-09-27T03:55:08;9.70;99.90
27423;DHT22;14878;50.778;0.258;2022-09-27T03:56:09;9.60;99.90
27423;DHT22;14878;50.778;0.258;2022-09-27T03:57:10;9.70;99.90
27423;DHT22;14878;50.778;0.258;2022-09-27T03:58:11;9.60;99.90
27423;DHT22;14878;50.778;0.258;2022-09-27T03:59:12;9.60;99.90
27423;DHT22;14878;50.778;0.258;2022-09-27T04:00:14;9.60;99.90
27423;DHT22;14878;50.778;0.258;2022-09-27T04:01:15;9.70;99.90
27423;DHT22;14878;50.778;0.258;2022-09-27T04:02:16;9.70;99.90
27423;DHT22;14878;50.778;0.258;2022-09-27T04:03:16;9.60;99.90
27423;DHT22;14878;50.778;0.258;2022-09-27T04:04:18;9.60;99.90
27423;DHT22;14878;50.778;0.258;2022-09-27T04:05:19;9.60;99.90
27423;DHT22;14878;50.778;0.258;2022-09-27T04:06:20;9.60;99.90
27423;DHT22;14878;50.778;0.258;2022-09-27T04:07:22;9.60;99.90
27423;DHT22;14878;50.778;0.258;2022-09-27T04:08:23;9.60;99.90
27423;DHT22;14878;50.778;0.258;2022-09-27T04:09:24;9.70;99.90
27423;DHT22;14878;50.778;0.258;2022-09-27T04:10:25;9.60;99.90
27423;DHT22;14878;50.778;0.258;2022-09-27T04:11:26;9.60;99.90
27423;DHT22;14878;50.778;0.258;2022-09-27T04:12:29;9.70;99.90
27423;DHT22;14878;50.778;0.258;2022-09-27T04:13:30;9.70;99.90
27423;DHT22;14878;50.778;0.258;2022-09-27T04:14:30;9.70;99.90
27423;DHT22;14878;50.778;0.258;2022-09-27T04:15:31;9.70;99.90
27423;DHT22;14878;50.778;0.258;2022-09-27T04:16:32;7.90;99.90
27423;DHT22;14878;50.778;0.258;2022-09-27T04:17:34;9.70;99.90
27423;DHT22;14878;50.778;0.258;2022-09-27T04:18:34;9.80;99.90
27423;DHT22;14878;50.778;0.258;2022-09-27T04:19:35;9.70;99.90
27423;DHT22;14878;50.778;0.258;2022-09-27T04:20:37;9.70;99.90
27423;DHT22;14878;50.778;0.258;2022-09-27T04:21:38;9.70;99.90
27423;DHT22;14878;50.778;0.258;2022-09-27T04:22:41;9.70;99.90
27423;DHT22;14878;50.778;0.258;2022-09-27T04:23:44;9.70;99.90
27423;DHT22;14878;50.778;0.258;2022-09-27T04:24:46;9.80;99.90
27423;DHT22;14878;50.778;0.258;2022-09-27T04:25:47;9.80;99.90
27423;DHT22;14878;50.778;0.258;2022-09-27T04:26:47;9.70;99.90
27423;DHT22;14878;50.778;0.258;2022-09-27T04:27:48;9.70;99.90
27423;DHT22;14878;50.778;0.258;2022-09-27T04:28:54;9.60;99.90
27423;DHT22;14878;50.778;0.258;2022-09-27T04:29:55;9.80;99.90
27423;DHT22;14878;50.778;0.258;2022-09-27T04:30:56;9.70;99.90
27423;DHT22;14878;50.778;0.258;2022-09-27T04:31:57;9.70;99.90
27423;DHT22;14878;50.778;0.258;2022-09-27T04:32:57;9.60;99.90
27423;DHT22;14878;50.778;0.258;2022-09-27T04:33:58;9.70;99.90
27423;DHT22;14878;50.778;0.258;2022-09-27T04:34:59;9.70;99.90
27423;DHT22;14878;50.778;0.258;2022-09-27T04:36:20;9.70;99.90
27423;DHT22;14878;50.778;0.258;2022-09-27T04:37:26;9.70;99.90
27423;DHT22;14878;50.778;0.258;2022-09-27T04:38:27;9.70;99.90
27423;DHT22;14878;50.778;0.258;2022-09-27T04:39:28;9.70;99.90
27423;DHT22;14878;50.778;0.258;2022-09-27T04:40:29;9.70;99.90
27423;DHT22;14878;50.778;0.258;2022-09-27T04:41:33;9.60;99.90
27423;DHT22;14878;50.778;0.258;2022-09-27T04:42:35;9.70;99.90
27423;DHT22;14878;50.778;0.258;2022-09-27T04:43:36;9.70;99.90
27423;DHT22;14878;50.778;0.258;2022-09-27T04:44:37;9.90;99.90
27423;DHT22;14878;50.778;0.258;2022-09-27T04:45:38;9.50;99.90
27423;DHT22;14878;50.778;0.258;2022-09-27T04:46:38;9.70;99.90
27423;DHT22;14878;50.778;0.258;2022-09-27T04:47:46;9.70;99.90
27423;DHT22;14878;50.778;0.258;2022-09-27T04:48:47;9.70;99.90
27423;DHT22;14878;50.778;0.258;2022-09-27T04:49:48;9.70;99.90
27423;DHT22;14878;50.778;0.258;2022-09-27T04:50:59;9.60;99.90
27423;DHT22;14878;50.778;0.258;2022-09-27T04:52:01;9.60;99.90
27423;DHT22;14878;50.778;0.258;2022-09-27T04:53:03;9.70;99.90
27423;DHT22;14878;50.778;0.258;2022-09-27T04:54:04;9.60;99.90
27423;DHT22;14878;50.778;0.258;2022-09-27T04:55:06;9.60;99.90
27423;DHT22;14878;50.778;0.258;2022-09-27T04:56:07;9.60;99.90
27423;DHT22;14878;50.778;0.258;2022-09-27T04:57:08;12.30;99.90
27423;DHT22;14878;50.778;0.258;2022-09-27T04:58:09;9.60;99.90
27423;DHT22;14878;50.778;0.258;2022-09-27T04:59:10;9.60;99.90
27423;DHT22;14878;50.778;0.258;2022-09-27T05:00:11;12.20;99.90
27423;DHT22;14878;50.778;0.258;2022-09-27T05:01:13;9.60;99.90
27423;DHT22;14878;50.778;0.258;2022-09-27T05:02:14;9.60;99.90
27423;DHT22;14878;50.778;0.258;2022-09-27T05:03:15;9.60;99.90
27423;DHT22;14878;50.778;0.258;2022-09-27T05:04:15;9.60;99.90
27423;DHT22;14878;50.778;0.258;2022-09-27T05:05:16;9.60;99.90
27423;DHT22;14878;50.778;0.258;2022-09-27T05:06:17;9.60;99.90
27423;DHT22;14878;50.778;0.258;2022-09-27T05:07:18;9.70;99.90
27423;DHT22;14878;50.778;0.258;2022-09-27T05:08:19;9.70;99.90
27423;DHT22;14878;50.778;0.258;2022-09-27T05:09:20;9.70;99.90
27423;DHT22;14878;50.778;0.258;2022-09-27T05:10:21;9.70;99.90
27423;DHT22;14878;50.778;0.258;2022-09-27T05:11:22;9.70;99.90
27423;DHT22;14878;50.778;0.258;2022-09-27T05:12:22;9.70;99.90
27423;DHT22;14878;50.778;0.258;2022-09-27T05:13:26;9.70;99.90
27423;DHT22;14878;50.778;0.258;2022-09-27T05:14:27;9.70;99.90
27423;DHT22;14878;50.778;0.258;2022-09-27T05:15:28;9.80;99.90
27423;DHT22;14878;50.778;0.258;2022-09-27T05:16:28;9.70;99.90
27423;DHT22;14878;50.778;0.258;2022-09-27T05:17:29;9.70;99.90
27423;DHT22;14878;50.778;0.258;2022-09-27T05:18:30;9.80;99.90
27423;DHT22;14878;50.778;0.258;2022-09-27T05:19:31;9.80;99.90
27423;DHT22;14878;50.778;0.258;2022-09-27T05:20:32;9.90;99.90
27423;DHT22;14878;50.778;0.258;2022-09-27T05:21:34;9.90;99.90
27423;DHT22;14878;50.778;0.258;2022-09-27T05:22:35;9.80;99.90
27423;DHT22;14878;50.778;0.258;2022-09-27T05:23:37;9.80;99.90
27423;DHT22;14878;50.778;0.258;2022-09-27T05:24:38;9.80;99.90
27423;DHT22;14878;50.778;0.258;2022-09-27T05:25:38;9.80;99.90
27423;DHT22;14878;50.778;0.258;2022-09-27T05:26:39;9.90;99.90
27423;DHT22;14878;50.778;0.258;2022-09-27T05:27:41;9.80;99.90
27423;DHT22;14878;50.778;0.258;2022-09-27T05:28:42;9.80;99.90
27423;DHT22;14878;50.778;0.258;2022-09-27T05:29:43;9.80;99.90
27423;DHT22;14878;50.778;0.258;2022-09-27T05:30:45;9.90;99.90
27423;DHT22;14878;50.778;0.258;2022-09-27T05:31:45;9.90;99.90
27423;DHT22;14878;50.778;0.258;2022-09-27T05:32:46;9.90;99.90
27423;DHT22;14878;50.778;0.258;2022-09-27T05:33:49;9.90;99.90
27423;DHT22;14878;50.778;0.258;2022-09-27T05:34:50;9.90;99.90
27423;DHT22;14878;50.778;0.258;2022-09-27T05:35:54;9.90;99.90
27423;DHT22;14878;50.778;0.258;2022-09-27T05:36:55;9.90;99.90
27423;DHT22;14878;50.778;0.258;2022-09-27T05:37:59;9.90;99.90
27423;DHT22;14878;50.778;0.258;2022-09-27T05:39:00;9.90;99.90
27423;DHT22;14878;50.778;0.258;2022-09-27T05:40:01;9.90;99.90
27423;DHT22;14878;50.778;0.258;2022-09-27T05:41:02;9.90;99.90
27423;DHT22;14878;50.778;0.258;2022-09-27T05:42:03;9.90;99.90
27423;DHT22;14878;50.778;0.258;2022-09-27T05:43:06;9.90;99.90
27423;DHT22;14878;50.778;0.258;2022-09-27T05:44:07;9.80;99.90
27423;DHT22;14878;50.778;0.258;2022-09-27T05:45:09;9.90;99.90
27423;DHT22;14878;50.778;0.258;2022-09-27T05:46:09;9.90;99.90
27423;DHT22;14878;50.778;0.258;2022-09-27T05:47:10;9.90;99.90
27423;DHT22;14878;50.778;0.258;2022-09-27T05:48:12;9.90;99.90
27423;DHT22;14878;50.778;0.258;2022-09-27T05:49:14;9.90;99.90
27423;DHT22;14878;50.778;0.258;2022-09-27T05:50:15;9.90;99.90
27423;DHT22;14878;50.778;0.258;2022-09-27T05:51:16;10.00;99.90
27423;DHT22;14878;50.778;0.258;2022-09-27T05:52:18;9.90;99.90
27423;DHT22;14878;50.778;0.258;2022-09-27T05:53:19;9.90;99.90
27423;DHT22;14878;50.778;0.258;2022-09-27T05:54:20;9.80;99.90
27423;DHT22;14878;50.778;0.258;2022-09-27T05:55:21;9.90;99.90
27423;DHT22;14878;50.778;0.258;2022-09-27T05:56:22;9.90;99.90
27423;DHT22;14878;50.778;0.258;2022-09-27T05:57:24;9.90;99.90
27423;DHT22;14878;50.778;0.258;2022-09-27T05:58:25;9.90;99.90
27423;DHT22;14878;50.778;0.258;2022-09-27T05:59:27;10.00;99.90
27423;DHT22;14878;50.778;0.258;2022-09-27T06:00:28;10.00;99.90
27423;DHT22;14878;50.778;0.258;2022-09-27T06:01:29;10.00;99.90
27423;DHT22;14878;50.778;0.258;2022-09-27T06:02:29;9.90;99.90
27423;DHT22;14878;50.778;0.258;2022-09-27T06:03:30;10.00;99.90
27423;DHT22;14878;50.778;0.258;2022-09-27T06:04:31;9.90;99.90
27423;DHT22;14878;50.778;0.258;2022-09-27T06:05:35;10.00;99.90
27423;DHT22;14878;50.778;0.258;2022-09-27T06:06:37;9.90;99.90
27423;DHT22;14878;50.778;0.258;2022-09-27T06:07:37;10.00;99.90
27423;DHT22;14878;50.778;0.258;2022-09-27T06:08:40;9.90;99.90
27423;DHT22;14878;50.778;0.258;2022-09-27T06:09:41;10.00;99.90
27423;DHT22;14878;50.778;0.258;2022-09-27T06:10:43;10.00;99.90
27423;DHT22;14878;50.778;0.258;2022-09-27T06:11:44;10.00;99.90
27423;DHT22;14878;50.778;0.258;2022-09-27T06:12:45;10.00;99.90
27423;DHT22;14878;50.778;0.258;2022-09-27T06:13:46;10.00;99.90
27423;DHT22;14878;50.778;0.258;2022-09-27T06:14:47;10.00;99.90
27423;DHT22;14878;50.778;0.258;2022-09-27T06:15:48;10.10;99.90
27423;DHT22;14878;50.778;0.258;2022-09-27T06:16:50;10.10;99.90
27423;DHT22;14878;50.778;0.258;2022-09-27T06:17:54;10.10;99.90
27423;DHT22;14878;50.778;0.258;2022-09-27T06:18:55;10.10;99.90
27423;DHT22;14878;50.778;0.258;2022-09-27T06:19:57;10.10;99.90
27423;DHT22;14878;50.778;0.258;2022-09-27T06:20:59;10.20;99.90
27423;DHT22;14878;50.778;0.258;2022-09-27T06:22:00;10.10;99.90
27423;DHT22;14878;50.778;0.258;2022-09-27T06:23:05;10.10;99.90
27423;DHT22;14878;50.778;0.258;2022-09-27T06:24:07;10.10;99.90
27423;DHT22;14878;50.778;0.258;2022-09-27T06:25:08;10.10;99.90
27423;DHT22;14878;50.778;0.258;2022-09-27T06:26:09;10.10;99.90
27423;DHT22;14878;50.778;0.258;2022-09-27T06:27:10;10.10;99.90
27423;DHT22;14878;50.778;0.258;2022-09-27T06:28:11;10.10;99.90
27423;DHT22;14878;50.778;0.258;2022-09-27T06:29:13;10.10;99.90
27423;DHT22;14878;50.778;0.258;2022-09-27T06:30:14;10.10;99.90
27423;DHT22;14878;50.778;0.258;2022-09-27T06:31:15;10.10;99.90
27423;DHT22;14878;50.778;0.258;2022-09-27T06:32:15;10.20;99.90
27423;DHT22;14878;50.778;0.258;2022-09-27T06:33:18;10.20;99.90
27423;DHT22;14878;50.778;0.258;2022-09-27T06:34:19;10.20;99.90
27423;DHT22;14878;50.778;0.258;2022-09-27T06:35:19;10.30;99.90
27423;DHT22;14878;50.778;0.258;2022-09-27T06:36:24;10.30;99.90
27423;DHT22;14878;50.778;0.258;2022-09-27T06:37:25;10.30;99.90
27423;DHT22;14878;50.778;0.258;2022-09-27T06:38:26;10.30;99.90
27423;DHT22;14878;50.778;0.258;2022-09-27T06:39:27;10.40;99.90
27423;DHT22;14878;50.778;0.258;2022-09-27T06:40:28;10.30;99.90
27423;DHT22;14878;50.778;0.258;2022-09-27T06:41:29;10.30;99.90
27423;DHT22;14878;50.778;0.258;2022-09-27T06:42:30;10.30;99.90
27423;DHT22;14878;50.778;0.258;2022-09-27T06:43:31;10.40;99.90
27423;DHT22;14878;50.778;0.258;2022-09-27T06:44:33;10.30;99.90
27423;DHT22;14878;50.778;0.258;2022-09-27T06:45:35;10.30;99.90
27423;DHT22;14878;50.778;0.258;2022-09-27T06:46:36;10.30;99.90
27423;DHT22;14878;50.778;0.258;2022-09-27T06:47:38;10.20;99.90
27423;DHT22;14878;50.778;0.258;2022-09-27T06:48:39;10.30;99.90
27423;DHT22;14878;50.778;0.258;2022-09-27T06:49:39;8.20;99.90
27423;DHT22;14878;50.778;0.258;2022-09-27T06:50:42;10.30;99.90
27423;DHT22;14878;50.778;0.258;2022-09-27T06:51:46;10.30;99.90
27423;DHT22;14878;50.778;0.258;2022-09-27T06:52:47;10.30;99.90
27423;DHT22;14878;50.778;0.258;2022-09-27T06:53:49;10.40;99.90
27423;DHT22;14878;50.778;0.258;2022-09-27T06:54:49;10.40;99.90
27423;DHT22;14878;50.778;0.258;2022-09-27T06:55:51;10.40;99.90
27423;DHT22;14878;50.778;0.258;2022-09-27T06:56:51;10.30;99.90
27423;DHT22;14878;50.778;0.258;2022-09-27T06:57:56;11.70;99.90
27423;DHT22;14878;50.778;0.258;2022-09-27T06:59:16;10.40;99.90
27423;DHT22;14878;50.778;0.258;2022-09-27T07:00:35;10.40;99.90
27423;DHT22;14878;50.778;0.258;2022-09-27T07:01:36;10.50;99.90
27423;DHT22;14878;50.778;0.258;2022-09-27T07:02:37;10.50;99.90
27423;DHT22;14878;50.778;0.258;2022-09-27T07:03:39;10.40;99.90
27423;DHT22;14878;50.778;0.258;2022-09-27T07:04:42;10.60;99.90
27423;DHT22;14878;50.778;0.258;2022-09-27T07:05:56;10.50;99.90
27423;DHT22;14878;50.778;0.258;2022-09-27T07:06:58;10.60;99.90
27423;DHT22;14878;50.778;0.258;2022-09-27T07:07:59;10.60;99.90
27423;DHT22;14878;50.778;0.258;2022-09-27T07:09:00;10.60;99.90
27423;DHT22;14878;50.778;0.258;2022-09-27T07:10:01;10.60;99.90
27423;DHT22;14878;50.778;0.258;2022-09-27T07:11:06;10.60;99.90
27423;DHT22;14878;50.778;0.258;2022-09-27T07:12:07;10.60;99.90
27423;DHT22;14878;50.778;0.258;2022-09-27T07:13:09;10.70;99.90
27423;DHT22;14878;50.778;0.258;2022-09-27T07:14:10;10.70;99.90
27423;DHT22;14878;50.778;0.258;2022-09-27T07:15:11;10.70;99.90
27423;DHT22;14878;50.778;0.258;2022-09-27T07:16:14;10.80;99.90
27423;DHT22;14878;50.778;0.258;2022-09-27T07:17:15;10.70;99.90
27423;DHT22;14878;50.778;0.258;2022-09-27T07:18:16;10.70;99.90
27423;DHT22;14878;50.778;0.258;2022-09-27T07:19:17;10.70;99.90
27423;DHT22;14878;50.778;0.258;2022-09-27T07:20:18;10.70;99.90